createdAt,value
2018-08-13T00:02:02.509Z,99510.81
2018-08-13T00:04:33.472Z,99506.20
2018-08-13T00:07:04.505Z,99499.88
2018-08-13T00:09:40.634Z,99506.69
2018-08-13T00:12:12.825Z,99504.02
2018-08-13T00:14:44.480Z,99502.98
2018-08-13T00:17:15.559Z,99504.61
2018-08-13T00:19:46.516Z,99495.14
2018-08-13T00:22:17.546Z,99495.64
2018-08-13T00:24:48.476Z,99495.12
2018-08-13T00:27:19.472Z,99496.41
2018-08-13T00:29:50.529Z,99486.69
2018-08-13T00:32:21.477Z,99485.44
2018-08-13T00:34:52.490Z,99481.05
2018-08-13T00:37:23.545Z,99482.63
2018-08-13T00:39:54.481Z,99481.36
2018-08-13T00:42:25.481Z,99475.34
2018-08-13T00:44:56.477Z,99475.63
2018-08-13T00:47:27.496Z,99477.06
2018-08-13T00:49:58.534Z,99475.23
2018-08-13T00:52:29.504Z,99472.94
2018-08-13T00:55:00.493Z,99471.04
2018-08-13T00:57:31.546Z,99464.56
2018-08-13T01:00:02.497Z,99472.56
2018-08-13T01:02:33.508Z,99467.91
2018-08-13T01:05:04.607Z,99472.79
2018-08-13T01:07:35.594Z,99467.36
2018-08-13T01:10:10.844Z,99460.61
2018-08-13T01:12:41.689Z,99450.36
2018-08-13T01:15:14.784Z,99456.64
2018-08-13T01:17:47.625Z,99453.53
2018-08-13T01:20:21.597Z,99445.00
2018-08-13T01:22:52.514Z,99438.38
2018-08-13T01:25:23.490Z,99436.68
2018-08-13T01:27:54.517Z,99437.69
2018-08-13T01:30:25.517Z,99442.01
2018-08-13T01:32:56.485Z,99432.08
2018-08-13T01:35:27.506Z,99426.45
2018-08-13T01:37:58.463Z,99434.58
2018-08-13T01:40:29.476Z,99437.80
2018-08-13T01:43:00.530Z,99434.55
2018-08-13T01:45:31.483Z,99430.81
2018-08-13T01:48:02.522Z,99430.34
2018-08-13T01:50:33.475Z,99439.20
2018-08-13T01:53:04.594Z,99428.57
2018-08-13T01:55:35.473Z,99429.37
2018-08-13T01:58:06.516Z,99435.76
2018-08-13T02:00:37.456Z,99440.34
2018-08-13T02:03:09.003Z,99445.06
2018-08-13T02:05:40.290Z,99446.90
2018-08-13T02:08:11.389Z,99438.88
2018-08-13T02:10:42.514Z,99445.53
2018-08-13T02:13:13.525Z,99443.66
2018-08-13T02:15:44.537Z,99445.06
2018-08-13T02:18:15.493Z,99436.53
2018-08-13T02:20:46.501Z,99437.70
2018-08-13T02:23:17.466Z,99423.98
2018-08-13T02:25:48.597Z,99418.64
2018-08-13T02:28:19.484Z,99412.98
2018-08-13T02:30:50.485Z,99413.87
2018-08-13T02:33:21.505Z,99406.12
2018-08-13T02:35:52.489Z,99394.62
2018-08-13T02:38:23.496Z,99398.19
2018-08-13T02:40:54.496Z,99403.36
2018-08-13T02:43:25.516Z,99400.61
2018-08-13T02:45:56.513Z,99399.53
2018-08-13T02:48:27.519Z,99401.88
2018-08-13T02:50:58.529Z,99401.24
2018-08-13T02:53:29.486Z,99412.51
2018-08-13T02:56:00.475Z,99402.52
2018-08-13T02:58:31.493Z,99394.14
2018-08-13T03:01:02.482Z,99391.25
2018-08-13T03:03:33.492Z,99377.52
2018-08-13T03:06:04.505Z,99379.56
2018-08-13T03:08:35.538Z,99376.30
2018-08-13T03:11:06.510Z,99374.77
2018-08-13T03:13:37.518Z,99369.37
2018-08-13T03:16:08.488Z,99364.34
2018-08-13T03:18:39.519Z,99360.55
2018-08-13T03:21:10.485Z,99363.86
2018-08-13T03:23:41.511Z,99374.94
2018-08-13T03:26:12.521Z,99372.51
2018-08-13T03:28:43.530Z,99371.47
2018-08-13T03:31:14.477Z,99368.11
2018-08-13T03:33:45.478Z,99369.39
2018-08-13T03:36:17.060Z,99366.72
2018-08-13T03:38:48.374Z,99376.77
2018-08-13T03:41:19.477Z,99373.95
2018-08-13T03:43:50.521Z,99378.54
2018-08-13T03:46:21.461Z,99368.30
2018-08-13T03:48:52.521Z,99362.52
2018-08-13T03:51:23.492Z,99363.02
2018-08-13T03:53:54.507Z,99363.52
2018-08-13T03:56:25.548Z,99352.97
2018-08-13T03:58:56.501Z,99346.73
2018-08-13T04:01:27.497Z,99338.19
2018-08-13T04:03:58.513Z,99337.89
2018-08-13T04:06:29.572Z,99336.80
2018-08-13T04:09:00.726Z,99335.20
2018-08-13T04:11:31.586Z,99327.85
2018-08-13T04:14:02.509Z,99323.06
2018-08-13T04:16:33.493Z,99310.35
2018-08-13T04:19:04.518Z,99299.42
2018-08-13T04:21:35.471Z,99302.92
2018-08-13T04:24:06.518Z,99308.27
2018-08-13T04:26:37.489Z,99319.93
2018-08-13T04:29:08.521Z,99319.89
2018-08-13T04:31:39.480Z,99323.66
2018-08-13T04:34:10.503Z,99320.34
2018-08-13T04:36:41.466Z,99324.69
2018-08-13T04:39:14.288Z,99330.02
2018-08-13T04:41:45.527Z,99330.37
2018-08-13T04:44:16.522Z,99323.87
2018-08-13T04:46:47.488Z,99318.77
2018-08-13T04:49:18.485Z,99311.31
2018-08-13T04:51:49.509Z,99320.89
2018-08-13T04:54:20.493Z,99315.98
2018-08-13T04:56:51.502Z,99305.03
2018-08-13T04:59:22.562Z,99292.07
2018-08-13T05:01:53.467Z,99280.27
2018-08-13T05:04:25.023Z,99280.94
2018-08-13T05:06:56.427Z,99278.91
2018-08-13T05:09:27.512Z,99284.60
2018-08-13T05:11:58.498Z,99293.05
2018-08-13T05:14:29.594Z,99289.92
2018-08-13T05:17:01.311Z,99282.59
2018-08-13T05:19:32.443Z,99292.87
2018-08-13T05:22:03.837Z,99296.17
2018-08-13T05:24:34.797Z,99287.94
2018-08-13T05:27:05.789Z,99293.03
2018-08-13T05:29:37.030Z,99302.87
2018-08-13T05:32:08.722Z,99299.91
2018-08-13T05:34:39.624Z,99302.63
2018-08-13T05:37:10.642Z,99310.25
2018-08-13T05:39:41.589Z,99318.69
2018-08-13T05:42:12.502Z,99320.56
2018-08-13T05:44:43.496Z,99323.15
2018-08-13T05:47:14.517Z,99313.58
2018-08-13T05:49:45.485Z,99316.67
2018-08-13T05:52:16.508Z,99310.27
2018-08-13T05:54:47.504Z,99317.28
2018-08-13T05:57:18.526Z,99315.31
2018-08-13T05:59:49.488Z,99313.69
2018-08-13T06:02:20.489Z,99325.61
2018-08-13T06:04:51.504Z,99327.00
2018-08-13T06:07:22.489Z,99347.41
2018-08-13T06:09:53.522Z,99340.19
2018-08-13T06:12:24.580Z,99354.64
2018-08-13T06:14:55.487Z,99343.37
2018-08-13T06:17:26.488Z,99371.44
2018-08-13T06:19:57.496Z,99382.28
2018-08-13T06:22:28.558Z,99386.23
2018-08-13T06:24:59.525Z,99418.13
2018-08-13T06:27:30.498Z,99421.20
2018-08-13T06:30:01.547Z,99433.71
2018-08-13T06:32:32.477Z,99434.64
2018-08-13T06:35:03.509Z,99436.56
2018-08-13T06:37:34.594Z,99439.37
2018-08-13T06:40:06.473Z,99471.62
2018-08-13T06:42:37.634Z,99491.88
2018-08-13T06:45:09.805Z,99504.33
2018-08-13T06:47:41.352Z,99498.59
2018-08-13T06:50:13.866Z,99495.98
2018-08-13T06:52:45.313Z,99496.81
2018-08-13T06:55:16.373Z,99475.48
2018-08-13T06:57:47.421Z,99486.27
2018-08-13T07:00:18.484Z,99490.42
2018-08-13T07:02:49.452Z,99499.22
2018-08-13T07:05:20.538Z,99502.05
2018-08-13T07:07:51.489Z,99498.34
2018-08-13T07:10:22.515Z,99497.33
2018-08-13T07:12:53.514Z,99501.05
2018-08-13T07:15:24.498Z,99506.88
2018-08-13T07:17:55.423Z,99503.27
2018-08-13T07:20:26.494Z,99501.88
2018-08-13T07:22:57.449Z,99510.22
2018-08-13T07:25:28.529Z,99522.04
2018-08-13T07:27:59.536Z,99531.88
2018-08-13T07:30:30.509Z,99543.80
2018-08-13T07:33:01.461Z,99552.59
2018-08-13T07:35:32.504Z,99547.77
2018-08-13T07:38:03.493Z,99549.73
2018-08-13T07:40:34.477Z,99544.83
2018-08-13T07:43:05.547Z,99545.37
2018-08-13T07:45:36.503Z,99540.04
2018-08-13T07:48:07.645Z,99544.44
2018-08-13T07:50:38.620Z,99541.92
2018-08-13T07:53:09.558Z,99545.35
2018-08-13T07:55:40.501Z,99546.94
2018-08-13T07:58:11.900Z,99552.86
2018-08-13T08:00:43.005Z,99563.72
2018-08-13T08:03:14.284Z,99569.88
2018-08-13T08:05:45.446Z,99575.77
2018-08-13T08:08:16.477Z,99572.38
2018-08-13T08:10:47.505Z,99569.39
2018-08-13T08:13:18.497Z,99572.48
2018-08-13T08:15:49.510Z,99570.72
2018-08-13T08:18:20.491Z,99581.09
2018-08-13T08:20:51.518Z,99593.31
2018-08-13T08:23:22.501Z,99602.34
2018-08-13T08:25:54.457Z,99601.35
2018-08-13T08:28:25.505Z,99593.62
2018-08-13T08:30:56.504Z,99591.17
2018-08-13T08:33:27.499Z,99580.95
2018-08-13T08:35:58.477Z,99581.64
2018-08-13T08:38:29.503Z,99584.04
2018-08-13T08:41:00.599Z,99583.00
2018-08-13T08:43:32.397Z,99583.40
2018-08-13T08:46:03.578Z,99595.73
2018-08-13T08:48:34.483Z,99594.55
2018-08-13T08:51:05.554Z,99590.08
2018-08-13T08:53:36.575Z,99577.01
2018-08-13T08:56:08.413Z,99581.59
2018-08-13T08:58:39.740Z,99586.53
2018-08-13T09:01:10.609Z,99582.35
2018-08-13T09:03:41.514Z,99569.11
2018-08-13T09:06:12.487Z,99572.65
2018-08-13T09:08:43.488Z,99556.66
2018-08-13T09:11:14.517Z,99544.47
2018-08-13T09:13:45.473Z,99545.21
2018-08-13T09:16:16.495Z,99542.00
2018-08-13T09:20:56.535Z,99556.10
2018-08-13T09:23:50.488Z,99563.64
2018-08-13T09:26:44.499Z,99577.30
2018-08-13T09:29:38.498Z,99578.98
2018-08-13T09:32:34.429Z,99568.41
2018-08-13T09:35:23.222Z,99566.56
2018-08-13T09:37:54.736Z,99553.61
2018-08-13T09:40:26.801Z,99554.55
2018-08-13T09:42:57.684Z,99543.50
2018-08-13T09:45:28.623Z,99540.48
2018-08-13T09:47:59.565Z,99542.43
2018-08-13T09:50:30.503Z,99557.52
2018-08-13T09:53:01.461Z,99564.69
2018-08-13T09:55:32.485Z,99547.39
2018-08-13T09:58:03.608Z,99541.22
2018-08-13T10:00:39.557Z,99539.27
2018-08-13T10:03:10.483Z,99535.39
2018-08-13T10:05:41.477Z,99540.98
2018-08-13T10:08:12.540Z,99541.42
2018-08-13T10:10:43.493Z,99545.27
2018-08-13T10:13:14.593Z,99548.63
2018-08-13T10:15:45.549Z,99546.06
2018-08-13T10:18:16.534Z,99551.45
2018-08-13T10:20:47.497Z,99559.50
2018-08-13T10:23:18.521Z,99551.05
2018-08-13T10:25:49.535Z,99549.98
2018-08-13T10:28:20.508Z,99559.66
2018-08-13T10:30:51.480Z,99561.13
2018-08-13T10:33:22.497Z,99560.58
2018-08-13T10:35:53.490Z,99560.58
2018-08-13T10:38:25.620Z,99566.98
2018-08-13T10:40:56.760Z,99559.08
2018-08-13T10:43:27.595Z,99566.28
2018-08-13T10:45:58.492Z,99564.02
2018-08-13T10:48:29.498Z,99557.31
2018-08-13T10:51:00.470Z,99555.05
2018-08-13T10:53:31.594Z,99558.66
2018-08-13T10:56:02.525Z,99553.13
2018-08-13T10:58:33.492Z,99544.45
2018-08-13T11:01:04.591Z,99537.25
2018-08-13T11:06:19.556Z,99531.67
2018-08-13T11:08:50.520Z,99531.80
2018-08-13T11:11:21.529Z,99521.65
2018-08-13T11:13:53.237Z,99515.24
2018-08-13T11:16:24.356Z,99519.06
2018-08-13T11:18:55.480Z,99514.33
2018-08-13T11:21:26.522Z,99516.51
2018-08-13T11:23:57.512Z,99511.95
2018-08-13T11:26:28.529Z,99512.77
2018-08-13T11:28:59.508Z,99514.21
2018-08-13T11:31:30.485Z,99508.66
2018-08-13T11:34:01.448Z,99501.52
2018-08-13T11:36:32.452Z,99507.82
2018-08-13T11:39:03.563Z,99510.01
2018-08-13T11:41:34.508Z,99509.16
2018-08-13T11:44:05.490Z,99512.59
2018-08-13T11:46:36.824Z,99508.98
2018-08-13T11:49:07.664Z,99514.45
2018-08-13T11:51:38.494Z,99511.33
2018-08-13T11:54:09.552Z,99507.30
2018-08-13T11:56:40.475Z,99497.91
2018-08-13T11:59:11.554Z,99502.03
2018-08-13T12:04:27.496Z,99498.14
2018-08-13T12:06:58.520Z,99501.20
2018-08-13T12:09:30.293Z,99489.44
2018-08-13T12:12:00.391Z,99490.12
2018-08-13T12:14:31.540Z,99489.45
2018-08-13T12:17:02.560Z,99485.94
2018-08-13T12:19:33.587Z,99486.77
2018-08-13T12:22:04.521Z,99488.72
2018-08-13T12:24:35.740Z,99482.83
2018-08-13T12:27:06.597Z,99493.59
2018-08-13T12:29:37.553Z,99485.84
2018-08-13T12:32:08.590Z,99499.89
2018-08-13T12:34:39.510Z,99502.47
2018-08-13T12:37:10.849Z,99502.66
2018-08-13T12:39:41.604Z,99500.61
2018-08-13T12:42:12.540Z,99496.88
2018-08-13T12:44:43.516Z,99496.25
2018-08-13T12:47:14.607Z,99493.70
2018-08-13T12:49:45.756Z,99478.62
2018-08-13T12:52:16.563Z,99472.33
2018-08-13T12:54:48.186Z,99467.36
2018-08-13T12:57:19.376Z,99462.57
2018-08-13T12:59:50.519Z,99448.80
2018-08-13T13:02:21.501Z,99440.02
2018-08-13T13:04:52.507Z,99446.95
2018-08-13T13:07:23.492Z,99439.41
2018-08-13T13:09:54.521Z,99439.38
2018-08-13T13:12:25.489Z,99430.16
2018-08-13T13:14:56.501Z,99426.99
2018-08-13T13:17:27.539Z,99428.28
2018-08-13T13:19:58.633Z,99410.67
2018-08-13T13:22:29.501Z,99410.01
2018-08-13T13:25:00.522Z,99417.16
2018-08-13T13:27:31.537Z,99413.52
2018-08-13T13:30:02.599Z,99402.44
2018-08-13T13:32:33.510Z,99407.97
2018-08-13T13:35:05.464Z,99406.66
2018-08-13T13:37:37.293Z,99396.42
2018-08-13T13:40:13.510Z,99399.22
2018-08-13T13:42:44.534Z,99393.67
2018-08-13T13:45:17.420Z,99397.82
2018-08-13T13:47:48.509Z,99395.27
2018-08-13T13:50:20.416Z,99388.83
2018-08-13T13:52:51.483Z,99377.58
2018-08-13T13:55:22.489Z,99382.61
2018-08-13T13:57:53.489Z,99374.45
2018-08-13T14:00:24.517Z,99376.45
2018-08-13T14:02:55.513Z,99376.95
2018-08-13T14:05:26.502Z,99369.72
2018-08-13T14:07:57.500Z,99370.46
2018-08-13T14:10:28.502Z,99360.37
2018-08-13T14:12:59.484Z,99360.24
2018-08-13T14:15:30.492Z,99357.42
2018-08-13T14:20:33.625Z,99355.91
2018-08-13T14:23:04.621Z,99353.41
2018-08-13T14:25:35.510Z,99352.70
2018-08-13T14:28:06.541Z,99356.92
2018-08-13T14:30:37.546Z,99356.22
2018-08-13T14:33:09.430Z,99349.66
2018-08-13T14:35:40.498Z,99338.59
2018-08-13T14:38:11.476Z,99333.75
2018-08-13T14:40:42.490Z,99333.13
2018-08-13T14:43:13.484Z,99326.85
2018-08-13T14:45:44.551Z,99333.42
2018-08-13T14:48:15.516Z,99335.44
2018-08-13T14:50:46.513Z,99333.67
2018-08-13T14:53:17.481Z,99336.25
2018-08-13T14:55:48.521Z,99342.27
2018-08-13T14:58:19.501Z,99335.97
2018-08-13T15:00:50.499Z,99339.00
2018-08-13T15:03:21.480Z,99331.23
2018-08-13T15:05:52.506Z,99338.63
2018-08-13T15:08:23.498Z,99342.44
2018-08-13T15:10:54.508Z,99344.08
2018-08-13T15:13:25.553Z,99337.02
2018-08-13T15:15:56.479Z,99330.47
2018-08-13T15:18:27.505Z,99318.50
2018-08-13T15:20:58.516Z,99324.70
2018-08-13T15:23:29.489Z,99317.41
2018-08-13T15:26:00.511Z,99316.19
2018-08-13T15:28:31.456Z,99310.92
2018-08-13T15:31:02.857Z,99306.69
2018-08-13T15:33:33.668Z,99303.30
2018-08-13T15:36:04.501Z,99291.65
2018-08-13T15:38:35.473Z,99286.02
2018-08-13T15:41:06.529Z,99279.50
2018-08-13T15:43:37.489Z,99283.37
2018-08-13T15:46:08.613Z,99280.23
2018-08-13T15:48:39.500Z,99281.83
2018-08-13T15:51:10.475Z,99282.34
2018-08-13T15:53:41.550Z,99281.17
2018-08-13T15:56:12.489Z,99274.77
2018-08-13T15:58:43.526Z,99276.80
2018-08-13T16:01:14.562Z,99277.25
2018-08-13T16:03:45.673Z,99275.51
2018-08-13T16:06:16.609Z,99269.65
2018-08-13T16:08:47.509Z,99272.83
2018-08-13T16:11:18.553Z,99268.17
2018-08-13T16:13:49.561Z,99269.44
2018-08-13T16:16:20.646Z,99272.55
2018-08-13T16:18:51.545Z,99276.94
2018-08-13T16:21:22.513Z,99275.45
2018-08-13T16:23:53.495Z,99276.73
2018-08-13T16:26:24.550Z,99280.19
2018-08-13T16:28:55.497Z,99284.95
2018-08-13T16:31:26.541Z,99277.09
2018-08-13T16:33:57.511Z,99275.44
2018-08-13T16:36:28.506Z,99277.45
2018-08-13T16:38:59.540Z,99273.26
2018-08-13T16:41:30.514Z,99262.11
2018-08-13T16:44:01.501Z,99265.45
2018-08-13T16:46:33.270Z,99265.06
2018-08-13T16:49:03.684Z,99266.48
2018-08-13T16:51:34.593Z,99266.88
2018-08-13T16:54:05.705Z,99267.42
2018-08-13T16:56:36.754Z,99262.53
2018-08-13T16:59:07.590Z,99264.99
2018-08-13T17:01:38.558Z,99267.10
2018-08-13T17:04:09.501Z,99267.16
2018-08-13T17:06:40.546Z,99266.88
2018-08-13T17:09:12.507Z,99268.11
2018-08-13T17:11:43.518Z,99270.78
2018-08-13T17:16:57.569Z,99273.91
2018-08-13T17:19:28.500Z,99283.99
2018-08-13T17:21:59.549Z,99284.08
2018-08-13T17:24:30.506Z,99284.75
2018-08-13T17:27:01.480Z,99274.44
2018-08-13T17:29:32.506Z,99283.20
2018-08-13T17:32:03.513Z,99280.89
2018-08-13T17:34:34.489Z,99275.22
2018-08-13T17:37:06.030Z,99279.27
2018-08-13T17:39:37.311Z,99277.68
2018-08-13T17:42:08.406Z,99284.70
2018-08-13T17:44:39.637Z,99288.89
2018-08-13T17:47:10.526Z,99296.77
2018-08-13T17:49:41.505Z,99295.16
2018-08-13T17:52:12.500Z,99298.34
2018-08-13T17:54:43.480Z,99299.38
2018-08-13T17:57:14.509Z,99300.06
2018-08-13T17:59:45.503Z,99300.13
2018-08-13T18:02:16.609Z,99296.77
2018-08-13T18:04:47.492Z,99303.37
2018-08-13T18:07:18.518Z,99309.88
2018-08-13T18:09:50.577Z,99304.17
2018-08-13T18:12:21.508Z,99300.51
2018-08-13T18:14:52.569Z,99305.38
2018-08-13T18:17:23.518Z,99305.49
2018-08-13T18:19:54.480Z,99304.46
2018-08-13T18:22:25.498Z,99307.70
2018-08-13T18:24:56.509Z,99304.92
2018-08-13T18:29:11.552Z,99353.34
2018-08-13T18:31:42.505Z,99385.84
2018-08-13T18:34:13.527Z,99385.25
2018-08-13T18:36:44.509Z,99383.37
2018-08-13T18:39:15.525Z,99403.70
2018-08-13T18:41:46.505Z,99405.61
2018-08-13T18:44:17.514Z,99400.38
2018-08-13T18:46:48.483Z,99391.80
2018-08-13T18:49:19.557Z,99398.27
2018-08-13T18:51:50.505Z,99397.44
2018-08-13T18:54:21.501Z,99399.19
2018-08-13T18:56:52.529Z,99399.98
2018-08-13T18:59:23.510Z,99406.09
2018-08-13T19:01:54.477Z,99414.85
2018-08-13T19:04:25.523Z,99412.89
2018-08-13T19:06:56.493Z,99402.75
2018-08-13T19:09:27.521Z,99402.58
2018-08-13T19:11:58.582Z,99391.55
2018-08-13T19:14:29.514Z,99403.94
2018-08-13T19:17:00.666Z,99410.11
2018-08-13T19:19:31.713Z,99410.30
2018-08-13T19:22:03.428Z,99414.85
2018-08-13T19:24:34.523Z,99414.73
2018-08-13T19:27:05.490Z,99422.83
2018-08-13T19:29:36.591Z,99425.99
2018-08-13T19:32:07.558Z,99425.93
2018-08-13T19:34:38.498Z,99434.88
2018-08-13T19:37:09.565Z,99432.19
2018-08-13T19:39:40.493Z,99427.88
2018-08-13T19:42:11.529Z,99422.90
2018-08-13T19:44:42.510Z,99433.12
2018-08-13T19:47:13.530Z,99439.73
2018-08-13T19:49:44.524Z,99442.70
2018-08-13T19:52:15.514Z,99446.44
2018-08-13T19:54:46.606Z,99445.52
2018-08-13T19:57:17.539Z,99454.56
2018-08-13T19:59:48.481Z,99448.19
2018-08-13T20:02:19.523Z,99451.59
2018-08-13T20:04:50.481Z,99457.40
2018-08-13T20:07:21.525Z,99468.52
2018-08-13T20:09:52.498Z,99462.19
2018-08-13T20:12:23.506Z,99465.41
2018-08-13T20:14:54.513Z,99468.09
2018-08-13T20:20:12.693Z,99463.98
2018-08-13T20:22:44.714Z,99468.30
2018-08-13T20:25:18.194Z,99476.05
2018-08-13T20:27:50.379Z,99478.73
2018-08-13T20:30:22.476Z,99484.10
2018-08-13T20:32:54.376Z,99476.35
2018-08-13T20:35:25.490Z,99481.30
2018-08-13T20:37:56.474Z,99476.77
2018-08-13T20:40:27.505Z,99488.13
2018-08-13T20:42:58.474Z,99485.02
2018-08-13T20:45:29.585Z,99495.25
2018-08-13T20:48:00.554Z,99495.96
2018-08-13T20:50:31.511Z,99491.55
2018-08-13T20:53:02.477Z,99494.66
2018-08-13T20:55:33.510Z,99503.17
2018-08-13T20:58:04.531Z,99497.59
2018-08-13T21:00:35.513Z,99503.80
2018-08-13T21:03:06.469Z,99500.99
2018-08-13T21:05:37.477Z,99500.20
2018-08-13T21:08:08.625Z,99511.05
2018-08-13T21:10:39.506Z,99506.23
2018-08-13T21:13:10.478Z,99502.66
2018-08-13T21:15:41.489Z,99502.20
2018-08-13T21:18:12.533Z,99507.77
2018-08-13T21:20:43.522Z,99510.16
2018-08-13T21:23:18.030Z,99514.86
2018-08-13T21:25:49.385Z,99512.80
2018-08-13T21:28:20.493Z,99522.26
2018-08-13T21:30:51.490Z,99523.38
2018-08-13T21:33:22.493Z,99522.81
2018-08-13T21:35:53.526Z,99521.70
2018-08-13T21:38:24.505Z,99518.73
2018-08-13T21:40:55.496Z,99522.42
2018-08-13T21:43:26.514Z,99527.49
2018-08-13T21:48:36.561Z,99525.63
2018-08-13T21:51:07.543Z,99534.12
2018-08-13T21:53:39.377Z,99539.38
2018-08-13T21:56:10.498Z,99541.30
2018-08-13T21:58:41.577Z,99550.95
2018-08-13T22:01:17.736Z,99544.00
2018-08-13T22:03:48.565Z,99549.68
2018-08-13T22:06:19.493Z,99548.29
2018-08-13T22:08:50.459Z,99550.11
2018-08-13T22:11:21.456Z,99560.98
2018-08-13T22:13:52.460Z,99558.86
2018-08-13T22:16:23.453Z,99563.81
2018-08-13T22:18:54.676Z,99565.06
2018-08-13T22:21:25.552Z,99571.55
2018-08-13T22:24:19.444Z,99568.04
2018-08-13T22:26:50.517Z,99565.86
2018-08-13T22:29:21.472Z,99568.45
2018-08-13T22:31:52.505Z,99568.76
2018-08-13T22:34:25.817Z,99569.47
2018-08-13T22:36:56.582Z,99567.33
2018-08-13T22:39:27.512Z,99575.72
2018-08-13T22:41:58.459Z,99575.46
2018-08-13T22:44:29.477Z,99570.70
2018-08-13T22:47:00.524Z,99571.21
2018-08-13T22:49:31.454Z,99564.44
2018-08-13T22:52:02.498Z,99570.84
2018-08-13T22:54:33.489Z,99566.40
2018-08-13T22:57:04.506Z,99572.65
2018-08-13T22:59:35.509Z,99573.04
2018-08-13T23:02:06.511Z,99576.77
2018-08-13T23:04:37.497Z,99579.92
2018-08-13T23:07:08.808Z,99581.53
2018-08-13T23:09:39.605Z,99583.84
2018-08-13T23:12:11.349Z,99587.89
2018-08-13T23:14:42.505Z,99591.07
2018-08-13T23:17:13.492Z,99592.05
2018-08-13T23:19:44.493Z,99594.72
2018-08-13T23:23:02.011Z,99603.23
2018-08-13T23:25:34.735Z,99606.52
2018-08-13T23:28:10.195Z,99615.88
2018-08-13T23:30:41.346Z,99614.61
2018-08-13T23:33:12.379Z,99613.14
2018-08-13T23:35:43.515Z,99611.06
2018-08-13T23:38:14.497Z,99611.47
2018-08-13T23:40:45.497Z,99610.46
2018-08-13T23:43:16.530Z,99616.42
2018-08-13T23:45:47.458Z,99615.35
2018-08-13T23:48:19.261Z,99611.80
2018-08-13T23:50:49.412Z,99617.77
2018-08-13T23:53:20.514Z,99612.77
2018-08-13T23:55:51.473Z,99606.24
2018-08-13T23:58:22.494Z,99609.89
